LAKE LEAKE (ELIZABETH RIVER), Australia

7:14 AM AEDT on March 24, 2017 (GMT +1100)
Launceston | | Change Station

Elev 561 ft 41.53 °S, 147.20 °E | Updated 14 minutes ago

Mostly Cloudy
Mostly Cloudy
45 °F
Feels Like 40 °F
N
8
Wind Variable Wind from South

Today
High -- | Low -- °F
--% Chance of Precip.
Yesterday
High -- | Low -- °F
Precip. -- in
Pressure 30.21 in
Visibility 6.2 miles
Clouds
Windchill 40 °F
Dew Point 43 °F
Humidity 93%
Rainfall 0.00 in
Snow Depth Not available.
7:15 AM 7:13 PM
Waning Crescent, 21% visible
METAR YMLT 232000Z AUTO 19007KT 9999 // NCD 07/06 Q1023 RF00.0/000.0
Pressure 30.21 in
Visibility 6.2 miles
Clouds
Windchill 40 °F
Dew Point 43 °F
Humidity 93%
Rainfall 0.00 in
Snow Depth Not available.
7:15 AM 7:13 PM
Waning Crescent, 21% visible
METAR YMLT 232000Z AUTO 19007KT 9999 // NCD 07/06 Q1023 RF00.0/000.0

Get Severe Weather Alerts

Thanks for signing up!

Be on the lookout for a verification email in your inbox.

You'll start receiving the daily forecast at 8 AM.

×

10-Day Weather Forecast

×

Almanac

Astronomy

Mar. 24, 2017 Rise Set
Actual Time
Civil Twilight
Nautical Twilight
Astronomical Twilight
Moon
Length of Visible Light
Length of Day
Tomorrow will be .
, % of the Moon is Illuminated

Today's Extremes

Country Highs Country Lows

Community

WunderPhotos

Upload Photos

1,962,540 photos uploaded!

WunderBlog® & News

Nearby

Air Quality

  Air Quality AQ Index Pollutant
Not available.

Snow Depth

Station Depth Elevation

Earthquake Activity

City Distance Mag. Time & Date
Minimum magnitude displayed is 2.5.

Earthquake Activity

City Distance Mag. Time & Date
Minimum magnitude displayed is 2.5.

Coastal Water Temperatures

Place Temperature

Stations

Nearby Weather Stations

Station Location Temp. Windchill Dew Point Humidity Wind Precip. Elev Updated Type